Airfield :
LOGIN :

Register | Disclaimer

   EN    FR    IT 

 










Legend :    VFR   Marginal VFR   IFR   Intensive IFR   Very Intensive IFR
Visi :
Ceiling :
>= 8 km
>= 3000ft
5 to 8 km
1000 to 3000 ft
1500m to 5 km
500 to 1000 ft
800 to 1500m
200 to 500 ft
< 800m
< 200 ft
Symbols :   Thunderstorms  Fog  Heavy snow  Heavy precipitations  Wind > 20 kt
SIGMETs :     Misc.  Thunderstorms  Icing  Turbulence  Mountain Waves  Volcanic Ashes






- Airport Elevation : 302 ft
- IATA code : CGN


EDDK - Cologne Bonn

CURRENT METAR :
  • 061720Z 26014KT CAVOK 16/03 Q1002 NOSIG

EXPIRED METARs :
  • 061650Z 24013KT CAVOK 17/03 Q1002 NOSIG
  • 061620Z 25015KT CAVOK 17/04 Q1002 NOSIG
  • 061550Z 25016KT CAVOK 18/03 Q1001 NOSIG
  • 061520Z 26014KT CAVOK 18/04 Q1001 NOSIG

TAF TAF EDDK
Valid from the 06 at 18:00 until the 08 at 00:00 UTC


061700Z 0618/0724 21011KT 9999 FEW040
BECMG 0618/0621 17006KT
BECMG 0707/0710 25012KT
BECMG 0717/0719 25005KT
TEMPO 0720/0724 VRB03KT



MET'MAP, your aeronautical weather chart ! - Copyright ORBIFLY December 2007 - Disclaimer

ORBIFLY MET'MAP TEAM :

Programming & Development : Alexandra Zaïnal
Concept & original design : Baudouin d'Aumeries
Assistance for programming : Marc-Olivier Méhu
Technical & hardware support : Manuel Goepfert

Contact : metmap@orbifly.com




SOURCES & CREDITS :

   NOAA